createdAt,value
2023-02-16T00:01:27.670Z,8.14
2023-02-16T00:03:55.320Z,8.16
2023-02-16T00:06:23.579Z,8.05
2023-02-16T00:08:57.561Z,7.77
2023-02-16T00:11:51.706Z,8.07
2023-02-16T00:14:22.624Z,8.24
2023-02-16T00:16:52.880Z,8.15
2023-02-16T00:19:25.605Z,8.14
2023-02-16T00:22:07.140Z,8.12
2023-02-16T00:24:35.305Z,8.34
2023-02-16T00:27:23.347Z,7.84
2023-02-16T00:29:51.399Z,8.20
2023-02-16T00:32:18.166Z,7.97
2023-02-16T00:34:47.010Z,8.01
2023-02-16T00:37:14.117Z,7.38
2023-02-16T00:39:42.341Z,7.99
2023-02-16T00:42:27.075Z,7.84
2023-02-16T00:45:07.094Z,7.91
2023-02-16T00:47:43.832Z,7.99
2023-02-16T00:50:30.893Z,7.54
2023-02-16T00:52:58.882Z,7.82
2023-02-16T00:55:44.553Z,7.76
2023-02-16T00:58:33.876Z,7.45
2023-02-16T01:01:09.646Z,7.81
2023-02-16T01:03:37.927Z,7.41
2023-02-16T01:06:27.497Z,7.63
2023-02-16T01:09:25.000Z,7.67
2023-02-16T01:12:08.483Z,7.36
2023-02-16T01:17:24.866Z,7.51
2023-02-16T01:20:00.622Z,7.46
2023-02-16T01:22:33.563Z,7.41
2023-02-16T01:25:00.508Z,7.41
2023-02-16T01:27:28.043Z,7.34
2023-02-16T01:29:56.270Z,7.32
2023-02-16T01:32:25.629Z,7.33
2023-02-16T01:34:53.268Z,7.34
2023-02-16T01:37:20.372Z,7.27
2023-02-16T01:39:52.339Z,6.96
2023-02-16T01:43:21.543Z,6.55
2023-02-16T01:46:09.011Z,7.27
2023-02-16T01:48:35.852Z,7.10
2023-02-16T01:51:12.106Z,5.91
2023-02-16T01:54:07.985Z,7.27
2023-02-16T01:56:53.131Z,6.71
2023-02-16T01:59:44.082Z,7.41
2023-02-16T02:02:23.314Z,7.25
2023-02-16T02:05:24.091Z,7.33
2023-02-16T02:08:04.267Z,7.10
2023-02-16T02:10:54.653Z,7.15
2023-02-16T02:13:40.159Z,7.09
2023-02-16T02:16:10.445Z,6.90
2023-02-16T02:18:43.305Z,7.07
2023-02-16T02:22:04.007Z,7.07
2023-02-16T02:25:11.142Z,6.57
2023-02-16T02:28:05.724Z,7.04
2023-02-16T02:30:59.994Z,6.76
2023-02-16T02:33:48.118Z,6.83
2023-02-16T02:36:41.793Z,6.61
2023-02-16T02:39:31.341Z,6.92
2023-02-16T02:42:09.135Z,6.07
2023-02-16T02:45:02.765Z,6.90
2023-02-16T02:47:52.349Z,6.93
2023-02-16T02:51:22.602Z,6.88
2023-02-16T02:54:16.981Z,6.66
2023-02-16T02:57:25.513Z,6.88
2023-02-16T03:00:16.686Z,6.67
2023-02-16T03:02:49.121Z,7.17
2023-02-16T03:05:18.993Z,7.14
2023-02-16T03:07:49.605Z,6.97
2023-02-16T03:10:53.875Z,7.06
2023-02-16T03:13:39.546Z,6.88
2023-02-16T03:16:12.961Z,6.86
2023-02-16T03:19:01.204Z,6.66
2023-02-16T03:22:07.877Z,6.67
2023-02-16T03:25:07.946Z,6.75
2023-02-16T03:28:08.634Z,6.66
2023-02-16T03:30:46.211Z,6.31
2023-02-16T03:33:20.793Z,6.54
2023-02-16T03:35:47.895Z,6.57
2023-02-16T03:38:24.743Z,6.55
2023-02-16T03:40:57.832Z,6.48
2023-02-16T03:43:28.931Z,6.66
2023-02-16T03:45:55.770Z,6.54
2023-02-16T03:48:24.475Z,6.38
2023-02-16T03:50:53.231Z,6.89
2023-02-16T03:53:35.233Z,6.74
2023-02-16T03:56:01.849Z,6.72
2023-02-16T03:58:28.554Z,6.76
2023-02-16T04:00:55.506Z,6.61
2023-02-16T04:03:28.257Z,6.23
2023-02-16T04:05:58.610Z,6.18
2023-02-16T04:08:25.136Z,6.27
2023-02-16T04:10:57.964Z,6.24
2023-02-16T04:13:30.804Z,6.17
2023-02-16T04:16:03.667Z,6.13
2023-02-16T04:18:30.381Z,5.31
2023-02-16T04:21:18.371Z,5.87
2023-02-16T04:23:52.536Z,6.12
2023-02-16T04:26:19.203Z,5.75
2023-02-16T04:28:45.831Z,6.04
2023-02-16T04:31:18.748Z,6.12
2023-02-16T04:33:49.350Z,5.85
2023-02-16T04:36:17.625Z,6.00
2023-02-16T04:38:49.421Z,5.69
2023-02-16T04:41:22.227Z,5.98
2023-02-16T04:43:56.714Z,5.92
2023-02-16T04:46:32.568Z,5.96
2023-02-16T04:48:59.364Z,5.59
2023-02-16T04:51:28.102Z,5.84
2023-02-16T04:53:59.260Z,5.33
2023-02-16T04:56:31.964Z,5.83
2023-02-16T04:58:58.772Z,5.55
2023-02-16T05:01:32.842Z,5.69
2023-02-16T05:03:59.526Z,5.77
2023-02-16T05:06:30.476Z,5.69
2023-02-16T05:09:00.441Z,5.68
2023-02-16T05:11:51.297Z,5.66
2023-02-16T05:14:41.871Z,5.63
2023-02-16T05:17:13.987Z,5.54
2023-02-16T05:19:41.167Z,5.65
2023-02-16T05:22:11.323Z,5.41
2023-02-16T05:24:40.213Z,5.53
2023-02-16T05:27:09.102Z,5.63
2023-02-16T05:32:32.642Z,5.55
2023-02-16T05:34:59.251Z,5.54
2023-02-16T05:37:29.616Z,5.51
2023-02-16T05:39:56.666Z,5.83
2023-02-16T05:42:30.480Z,5.78
2023-02-16T05:45:03.680Z,5.90
2023-02-16T05:47:30.358Z,6.04
2023-02-16T05:50:09.166Z,6.05
2023-02-16T05:52:39.813Z,5.26
2023-02-16T05:55:06.505Z,5.87
2023-02-16T05:57:44.560Z,6.12
2023-02-16T06:00:12.330Z,6.22
2023-02-16T06:02:39.101Z,6.25
2023-02-16T06:05:06.050Z,6.20
2023-02-16T06:07:41.459Z,6.35
2023-02-16T06:10:11.969Z,6.27
2023-02-16T06:12:38.634Z,6.53
2023-02-16T06:15:05.585Z,6.46
2023-02-16T06:17:35.296Z,6.45
2023-02-16T06:20:04.588Z,6.51
2023-02-16T06:22:36.773Z,6.57
2023-02-16T06:25:08.231Z,6.66
2023-02-16T06:27:42.145Z,6.75
2023-02-16T06:30:11.505Z,6.51
2023-02-16T06:32:48.166Z,6.62
2023-02-16T06:35:15.198Z,6.76
2023-02-16T06:37:47.037Z,6.77
2023-02-16T06:40:14.727Z,6.72
2023-02-16T06:42:46.448Z,6.77
2023-02-16T06:45:16.501Z,6.42
2023-02-16T06:47:43.612Z,6.85
2023-02-16T06:50:14.917Z,6.64
2023-02-16T06:52:44.667Z,6.89
2023-02-16T06:55:19.737Z,6.94
2023-02-16T06:57:54.403Z,6.58
2023-02-16T07:00:25.553Z,7.01
2023-02-16T07:02:56.115Z,7.02
2023-02-16T07:08:21.088Z,6.72
2023-02-16T07:10:50.468Z,7.12
2023-02-16T07:13:17.569Z,7.12
2023-02-16T07:15:44.362Z,7.19
2023-02-16T07:18:22.461Z,7.20
2023-02-16T07:20:50.981Z,7.24
2023-02-16T07:23:18.998Z,7.32
2023-02-16T07:25:47.646Z,7.20
2023-02-16T07:28:17.502Z,7.18
2023-02-16T07:30:44.497Z,7.39
2023-02-16T07:33:24.847Z,7.40
2023-02-16T07:35:57.473Z,7.38
2023-02-16T07:38:27.465Z,7.62
2023-02-16T07:41:09.318Z,7.60
2023-02-16T07:43:45.361Z,7.75
2023-02-16T07:46:12.024Z,7.53
2023-02-16T07:48:52.013Z,8.00
2023-02-16T07:51:29.619Z,8.08
2023-02-16T07:54:10.038Z,8.17
2023-02-16T07:56:43.651Z,8.28
2023-02-16T07:59:10.843Z,8.10
2023-02-16T08:01:38.559Z,8.23
2023-02-16T08:04:12.638Z,8.06
2023-02-16T08:06:42.939Z,8.29
2023-02-16T08:09:14.398Z,8.24
2023-02-16T08:11:43.847Z,8.15
2023-02-16T08:14:25.763Z,7.99
2023-02-16T08:17:00.355Z,8.13
2023-02-16T08:19:45.887Z,8.23
2023-02-16T08:22:12.361Z,8.13
2023-02-16T08:24:42.216Z,8.20
2023-02-16T08:27:13.484Z,8.23
2023-02-16T08:29:41.650Z,7.77
2023-02-16T08:32:20.777Z,8.31
2023-02-16T08:34:50.432Z,8.00
2023-02-16T08:37:17.967Z,8.42
2023-02-16T08:40:03.854Z,8.51
2023-02-16T08:42:33.152Z,8.43
2023-02-16T08:45:04.482Z,8.58
2023-02-16T08:47:47.716Z,8.64
2023-02-16T08:50:18.452Z,8.77
2023-02-16T08:52:46.947Z,8.81
2023-02-16T08:55:14.068Z,8.92
2023-02-16T08:57:44.566Z,9.00
2023-02-16T09:00:38.051Z,9.21
2023-02-16T09:03:10.933Z,9.01
2023-02-16T09:05:39.833Z,9.36
2023-02-16T09:08:07.074Z,9.40
2023-02-16T09:10:33.779Z,9.46
2023-02-16T09:13:06.519Z,9.40
2023-02-16T09:15:33.647Z,9.56
2023-02-16T09:18:01.873Z,8.97
2023-02-16T09:20:29.204Z,9.79
2023-02-16T09:23:04.623Z,9.80
2023-02-16T09:25:42.709Z,9.76
2023-02-16T09:28:10.971Z,10.09
2023-02-16T09:30:40.084Z,10.11
2023-02-16T09:33:10.087Z,10.12
2023-02-16T09:35:40.686Z,10.24
2023-02-16T09:38:07.864Z,10.22
2023-02-16T09:40:43.876Z,10.35
2023-02-16T09:43:22.731Z,10.28
2023-02-16T09:46:00.601Z,10.64
2023-02-16T09:48:43.017Z,10.80
2023-02-16T09:51:38.036Z,10.88
2023-02-16T09:54:46.106Z,11.03
2023-02-16T09:57:23.636Z,11.08
2023-02-16T10:00:11.063Z,10.87
2023-02-16T10:03:10.380Z,11.39
2023-02-16T10:05:58.890Z,11.43
2023-02-16T10:08:43.628Z,11.03
2023-02-16T10:11:35.236Z,11.61
2023-02-16T10:14:33.667Z,11.71
2023-02-16T10:17:17.045Z,11.77
2023-02-16T10:20:06.408Z,11.75
2023-02-16T10:22:50.188Z,11.86
2023-02-16T10:25:29.352Z,12.07
2023-02-16T10:28:50.383Z,12.27
2023-02-16T10:31:33.982Z,12.23
2023-02-16T10:34:28.205Z,12.53
2023-02-16T10:37:31.380Z,12.66
2023-02-16T10:40:23.525Z,12.86
2023-02-16T10:43:20.369Z,12.43
2023-02-16T10:45:52.482Z,12.92
2023-02-16T10:48:23.682Z,13.02
2023-02-16T10:51:28.233Z,13.04
2023-02-16T10:54:05.939Z,13.17
2023-02-16T10:56:41.999Z,13.27
2023-02-16T10:59:28.136Z,13.32
2023-02-16T11:04:44.592Z,13.32
2023-02-16T11:07:22.218Z,13.33
2023-02-16T11:09:59.011Z,13.27
2023-02-16T11:12:38.182Z,13.52
2023-02-16T11:15:22.011Z,13.52
2023-02-16T11:17:53.048Z,13.09
2023-02-16T11:20:38.096Z,13.66
2023-02-16T11:23:17.926Z,13.64
2023-02-16T11:26:28.077Z,13.58
2023-02-16T11:29:28.254Z,13.65
2023-02-16T11:31:56.510Z,13.41
2023-02-16T11:34:34.984Z,13.41
2023-02-16T11:37:35.507Z,13.51
2023-02-16T11:40:18.164Z,13.43
2023-02-16T11:42:54.897Z,13.46
2023-02-16T11:45:34.753Z,13.49
2023-02-16T11:48:13.969Z,13.00
2023-02-16T11:51:16.588Z,13.54
2023-02-16T11:53:59.096Z,13.49
2023-02-16T11:56:33.920Z,13.42
2023-02-16T11:59:23.197Z,13.20
2023-02-16T12:01:57.099Z,13.47
2023-02-16T12:04:59.353Z,13.59
2023-02-16T12:07:28.908Z,13.26
2023-02-16T12:10:39.035Z,13.66
2023-02-16T12:13:23.301Z,13.60
2023-02-16T12:16:10.434Z,13.69
2023-02-16T12:19:22.331Z,13.66
2023-02-16T12:25:37.653Z,13.41
2023-02-16T12:28:22.565Z,13.55
2023-02-16T12:31:01.563Z,13.64
2023-02-16T12:33:38.270Z,13.56
2023-02-16T12:36:27.372Z,13.63
2023-02-16T12:39:14.560Z,13.33
2023-02-16T12:42:04.787Z,13.52
2023-02-16T12:44:52.136Z,13.58
2023-02-16T12:47:36.014Z,13.71
2023-02-16T12:50:14.887Z,13.42
2023-02-16T12:52:53.440Z,13.52
2023-02-16T12:55:51.566Z,13.41
2023-02-16T12:58:28.936Z,13.59
2023-02-16T13:01:23.140Z,13.53
2023-02-16T13:06:58.800Z,13.66
2023-02-16T13:09:37.936Z,13.83
2023-02-16T13:12:28.512Z,13.67
2023-02-16T13:15:30.399Z,13.64
2023-02-16T13:18:00.495Z,13.60
2023-02-16T13:20:32.738Z,13.52
2023-02-16T13:23:53.066Z,13.52
2023-02-16T13:26:32.190Z,13.70
2023-02-16T13:29:02.158Z,13.71
2023-02-16T13:31:49.228Z,12.96
2023-02-16T13:34:33.921Z,13.61
2023-02-16T13:37:26.492Z,13.77
2023-02-16T13:40:10.828Z,13.96
2023-02-16T13:43:16.828Z,13.86
2023-02-16T13:45:47.350Z,13.38
2023-02-16T13:48:40.312Z,12.77
2023-02-16T13:51:14.017Z,13.44
2023-02-16T13:53:56.276Z,13.29
2023-02-16T13:56:23.305Z,13.48
2023-02-16T13:58:53.536Z,13.96
2023-02-16T14:01:39.986Z,13.63
2023-02-16T14:04:25.436Z,14.08
2023-02-16T14:07:20.091Z,13.48
2023-02-16T14:09:51.640Z,13.67
2023-02-16T14:12:34.353Z,14.04
2023-02-16T14:15:22.770Z,14.17
2023-02-16T14:17:51.601Z,13.99
2023-02-16T14:20:19.780Z,14.06
2023-02-16T14:22:53.470Z,13.18
2023-02-16T14:25:28.048Z,13.25
2023-02-16T14:28:13.597Z,13.54
2023-02-16T14:30:48.771Z,13.72
2023-02-16T14:33:26.340Z,13.82
2023-02-16T14:35:59.028Z,13.72
2023-02-16T14:38:32.964Z,12.69
2023-02-16T14:41:04.518Z,13.76
2023-02-16T14:43:35.513Z,13.49
2023-02-16T14:46:30.084Z,12.99
2023-02-16T14:49:38.662Z,13.54
2023-02-16T14:52:14.342Z,13.51
2023-02-16T14:55:18.592Z,13.38
2023-02-16T14:58:23.725Z,13.45
2023-02-16T15:01:02.681Z,13.09
2023-02-16T15:03:54.447Z,13.33
2023-02-16T15:06:38.138Z,13.20
2023-02-16T15:09:46.520Z,13.26
2023-02-16T15:12:23.920Z,13.36
2023-02-16T15:15:07.456Z,13.76
2023-02-16T15:17:48.245Z,13.72
2023-02-16T15:20:48.436Z,13.69
2023-02-16T15:23:34.831Z,12.72
2023-02-16T15:26:03.124Z,13.55
2023-02-16T15:28:37.396Z,13.46
2023-02-16T15:31:08.098Z,14.23
2023-02-16T15:33:43.924Z,14.06
2023-02-16T15:36:18.158Z,13.88
2023-02-16T15:39:08.112Z,13.81
2023-02-16T15:41:47.755Z,13.83
2023-02-16T15:44:43.927Z,13.73
2023-02-16T15:47:27.875Z,13.64
2023-02-16T15:50:02.410Z,13.48
2023-02-16T15:52:33.662Z,13.42
2023-02-16T15:55:06.342Z,13.37
2023-02-16T15:57:52.750Z,12.98
2023-02-16T16:00:21.935Z,12.95
2023-02-16T16:02:55.821Z,12.91
2023-02-16T16:05:50.073Z,12.98
2023-02-16T16:08:31.770Z,12.73
2023-02-16T16:11:06.343Z,12.93
2023-02-16T16:13:37.951Z,12.49
2023-02-16T16:16:07.054Z,12.71
2023-02-16T16:18:48.015Z,12.35
2023-02-16T16:21:36.598Z,12.39
2023-02-16T16:24:08.968Z,12.68
2023-02-16T16:26:56.129Z,12.82
2023-02-16T16:29:32.723Z,13.54
2023-02-16T16:32:55.304Z,13.60
2023-02-16T16:35:44.302Z,13.14
2023-02-16T16:38:29.187Z,12.91
2023-02-16T16:41:02.945Z,12.49
2023-02-16T16:43:43.404Z,12.65
2023-02-16T16:46:22.756Z,12.57
2023-02-16T16:49:10.072Z,13.12
2023-02-16T16:54:49.572Z,13.10
2023-02-16T16:57:28.248Z,12.61
2023-02-16T17:03:01.698Z,12.14
2023-02-16T17:05:28.481Z,12.48
2023-02-16T17:07:55.265Z,12.67
2023-02-16T17:10:30.689Z,12.42
2023-02-16T17:13:07.228Z,13.33
2023-02-16T17:15:44.794Z,13.36
2023-02-16T17:18:16.755Z,13.43
2023-02-16T17:20:58.151Z,13.59
2023-02-16T17:23:32.620Z,12.21
2023-02-16T17:25:59.437Z,12.10
2023-02-16T17:28:31.235Z,12.20
2023-02-16T17:30:58.013Z,12.18
2023-02-16T17:33:32.372Z,12.11
2023-02-16T17:36:08.422Z,11.92
2023-02-16T17:38:35.552Z,12.05
2023-02-16T17:41:02.286Z,11.88
2023-02-16T17:43:30.536Z,11.32
2023-02-16T17:46:01.207Z,11.66
2023-02-16T17:48:30.521Z,11.77
2023-02-16T17:50:58.181Z,10.81
2023-02-16T17:53:26.379Z,11.68
2023-02-16T17:55:55.841Z,11.63
2023-02-16T17:58:24.914Z,12.01
2023-02-16T18:00:52.037Z,12.28
2023-02-16T18:03:19.015Z,11.81
2023-02-16T18:08:31.805Z,12.30
2023-02-16T18:11:07.347Z,12.14
2023-02-16T18:13:48.142Z,11.92
2023-02-16T18:16:21.839Z,11.74
2023-02-16T18:18:48.551Z,11.19
2023-02-16T18:21:15.721Z,11.32
2023-02-16T18:23:42.319Z,11.32
2023-02-16T18:26:10.365Z,11.47
2023-02-16T18:28:49.990Z,11.43
2023-02-16T18:31:16.738Z,10.97
2023-02-16T18:33:43.572Z,11.09
2023-02-16T18:36:10.365Z,10.17
2023-02-16T18:38:37.097Z,11.13
2023-02-16T18:41:05.995Z,10.95
2023-02-16T18:43:32.772Z,11.19
2023-02-16T18:45:59.463Z,10.72
2023-02-16T18:48:26.392Z,10.84
2023-02-16T18:50:55.872Z,10.73
2023-02-16T18:53:22.572Z,10.70
2023-02-16T18:55:52.476Z,10.85
2023-02-16T18:58:22.328Z,10.24
2023-02-16T19:00:51.232Z,10.77
2023-02-16T19:03:18.449Z,10.67
2023-02-16T19:05:49.717Z,10.94
2023-02-16T19:08:16.366Z,10.94
2023-02-16T19:10:45.219Z,11.01
2023-02-16T19:13:12.488Z,10.26
2023-02-16T19:15:42.235Z,10.87
2023-02-16T19:18:15.258Z,11.08
2023-02-16T19:20:51.325Z,10.26
2023-02-16T19:23:29.575Z,10.74
2023-02-16T19:25:58.843Z,10.50
2023-02-16T19:28:38.254Z,11.17
2023-02-16T19:31:16.277Z,11.18
2023-02-16T19:33:45.945Z,11.26
2023-02-16T19:36:13.607Z,11.18
2023-02-16T19:39:25.062Z,11.02
2023-02-16T19:41:51.918Z,10.96
2023-02-16T19:44:18.614Z,11.16
2023-02-16T19:46:52.930Z,11.19
2023-02-16T19:49:19.892Z,11.09
2023-02-16T19:52:06.122Z,11.14
2023-02-16T19:54:35.083Z,10.41
2023-02-16T19:57:13.064Z,10.94
2023-02-16T19:59:39.814Z,10.90
2023-02-16T20:02:11.303Z,10.16
2023-02-16T20:04:50.278Z,11.11
2023-02-16T20:07:29.117Z,9.99
2023-02-16T20:09:56.155Z,11.05
2023-02-16T20:15:26.971Z,10.48
2023-02-16T20:18:16.845Z,10.94
2023-02-16T20:21:10.727Z,11.09
2023-02-16T20:23:49.572Z,11.00
2023-02-16T20:26:46.118Z,10.52
2023-02-16T20:29:39.000Z,10.46
2023-02-16T20:32:15.180Z,11.11
2023-02-16T20:37:56.413Z,10.56
2023-02-16T20:40:29.539Z,11.10
2023-02-16T20:43:13.686Z,11.06
2023-02-16T20:45:43.057Z,10.20
2023-02-16T20:48:39.345Z,10.82
2023-02-16T20:51:16.181Z,11.00
2023-02-16T20:53:48.960Z,10.71
2023-02-16T20:56:21.587Z,9.86
2023-02-16T20:58:59.616Z,9.86
2023-02-16T21:01:59.638Z,10.41
2023-02-16T21:04:41.597Z,10.45
2023-02-16T21:07:57.354Z,10.50
2023-02-16T21:10:37.024Z,10.34
2023-02-16T21:13:20.144Z,9.53
2023-02-16T21:15:56.962Z,10.36
2023-02-16T21:18:53.505Z,10.03
2023-02-16T21:21:43.770Z,10.39
2023-02-16T21:24:13.934Z,10.60
2023-02-16T21:29:28.112Z,9.51
2023-02-16T21:32:05.198Z,10.75
2023-02-16T21:34:39.146Z,10.72
2023-02-16T21:40:44.941Z,9.39
2023-02-16T21:46:16.140Z,10.71
2023-02-16T21:48:52.183Z,10.42
2023-02-16T21:51:40.527Z,10.62
2023-02-16T21:54:21.657Z,10.69
2023-02-16T21:56:51.197Z,9.99
2023-02-16T21:59:42.779Z,10.44
2023-02-16T22:04:52.920Z,10.26
2023-02-16T22:07:19.946Z,10.33
2023-02-16T22:09:46.709Z,10.32
2023-02-16T22:12:13.265Z,10.16
2023-02-16T22:14:42.553Z,10.18
2023-02-16T22:20:09.591Z,10.04
2023-02-16T22:22:43.011Z,10.11
2023-02-16T22:25:15.690Z,10.16
2023-02-16T22:27:58.599Z,9.59
2023-02-16T22:30:38.185Z,8.86
2023-02-16T22:33:08.445Z,7.75
2023-02-16T22:35:41.289Z,9.13
2023-02-16T22:38:15.200Z,8.87
2023-02-16T22:40:50.244Z,8.85
2023-02-16T22:43:20.939Z,7.96
2023-02-16T22:45:59.725Z,8.53
2023-02-16T22:51:18.363Z,8.44
2023-02-16T22:53:49.519Z,7.77
2023-02-16T22:56:20.265Z,8.20
2023-02-16T22:58:56.406Z,7.81
2023-02-16T23:01:33.467Z,7.88
2023-02-16T23:04:11.029Z,8.61
2023-02-16T23:06:52.270Z,8.92
2023-02-16T23:09:22.584Z,8.99
2023-02-16T23:11:52.322Z,8.80
2023-02-16T23:14:22.129Z,8.89
2023-02-16T23:16:51.774Z,8.41
2023-02-16T23:19:25.430Z,8.83
2023-02-16T23:21:54.023Z,8.59
2023-02-16T23:24:23.337Z,7.95
2023-02-16T23:26:53.539Z,8.75
2023-02-16T23:29:25.771Z,8.61
2023-02-16T23:31:57.390Z,8.54
2023-02-16T23:34:27.872Z,8.31
2023-02-16T23:36:59.852Z,8.46
2023-02-16T23:39:26.966Z,8.22
2023-02-16T23:42:11.661Z,7.80
2023-02-16T23:44:58.703Z,7.36
2023-02-16T23:47:47.820Z,7.15
2023-02-16T23:50:17.511Z,7.42
2023-02-16T23:52:44.278Z,7.37
2023-02-16T23:55:11.732Z,7.47
2023-02-16T23:57:53.647Z,7.48
